Terminal Aerodrome Forecast
Issued by NWS

Current Version | Previous Version | Graphics & Text | Print | Product List | Glossary On
Versions: 1 2 3 4 5 6 7 8 9 10 11 12 13 14 15 16 17 18 19 20 21
000
FTUS41 KILN 201132
TAFLCK
TAF
KLCK 201132Z 2012/2112 VRB04KT P6SM OVC060
     FM201400 22005KT P6SM OVC060
     FM210000 VRB04KT P6SM SCT080
     FM210700 00000KT 5SM BR SCT250
     FM210900 VRB03KT 2SM BR SCT250=

USA.gov is the U.S. government's official web portal to all federal, state and local government web resources and services.